地図

経路データ

SID SEASON NUMBER BASIN SUBBASIN NAME ISO_TIME NATURE LAT LON WMO_WIND WMO_PRES WMO_AGENCY TRACK_TYPE DIST2LAND LANDFALL IFLAG USA_AGENCY USA_ATCF_ID USA_LAT USA_LON USA_RECORD USA_STATUS USA_WIND USA_PRES USA_SSHS USA_R34_NE USA_R34_SE USA_R34_SW USA_R34_NW USA_R50_NE USA_R50_SE USA_R50_SW USA_R50_NW USA_R64_NE USA_R64_SE USA_R64_SW USA_R64_NW USA_POCI USA_ROCI USA_RMW USA_EYE TOKYO_LAT TOKYO_LON TOKYO_GRADE TOKYO_WIND TOKYO_PRES TOKYO_R50_DIR TOKYO_R50_LONG TOKYO_R50_SHORT TOKYO_R30_DIR TOKYO_R30_LONG TOKYO_R30_SHORT TOKYO_LAND CMA_LAT CMA_LON CMA_CAT CMA_WIND CMA_PRES HKO_LAT HKO_LON HKO_CAT HKO_WIND HKO_PRES NEWDELHI_LAT NEWDELHI_LON NEWDELHI_GRADE NEWDELHI_WIND NEWDELHI_PRES NEWDELHI_CI NEWDELHI_DP NEWDELHI_POCI REUNION_LAT REUNION_LON REUNION_TYPE REUNION_WIND REUNION_PRES REUNION_TNUM REUNION_CI REUNION_RMW REUNION_R34_NE REUNION_R34_SE REUNION_R34_SW REUNION_R34_NW REUNION_R50_NE REUNION_R50_SE REUNION_R50_SW REUNION_R50_NW REUNION_R64_NE REUNION_R64_SE REUNION_R64_SW REUNION_R64_NW BOM_LAT BOM_LON BOM_TYPE BOM_WIND BOM_PRES BOM_TNUM BOM_CI BOM_RMW BOM_R34_NE BOM_R34_SE BOM_R34_SW BOM_R34_NW BOM_R50_NE BOM_R50_SE BOM_R50_SW BOM_R50_NW BOM_R64_NE BOM_R64_SE BOM_R64_SW BOM_R64_NW BOM_ROCI BOM_POCI BOM_EYE BOM_POS_METHOD BOM_PRES_METHOD NADI_LAT NADI_LON NADI_CAT NADI_WIND NADI_PRES WELLINGTON_LAT WELLINGTON_LON WELLINGTON_WIND WELLINGTON_PRES DS824_LAT DS824_LON DS824_STAGE DS824_WIND DS824_PRES TD9636_LAT TD9636_LON TD9636_STAGE TD9636_WIND TD9636_PRES TD9635_LAT TD9635_LON TD9635_WIND TD9635_PRES TD9635_ROCI NEUMANN_LAT NEUMANN_LON NEUMANN_CLASS NEUMANN_WIND NEUMANN_PRES MLC_LAT MLC_LON MLC_CLASS MLC_WIND MLC_PRES USA_GUST BOM_GUST BOM_GUST_PER REUNION_GUST REUNION_GUST_PER USA_SEAHGT USA_SEARAD_NE USA_SEARAD_SE USA_SEARAD_SW USA_SEARAD_NW STORM_SPEED STORM_DIR
1924046S11064 1924 6 SI MM NOT_NAMED 1924-02-14 18:00:00 NR -11.3000 64.2000 main 1205 1137 __________O___ -1 -11.3000 64.2000 7 13 233
1924046S11064 1924 6 SI MM NOT_NAMED 1924-02-14 21:00:00 NR -11.6916 63.6702 main 1137 1070 __________P___ -1 -11.6916 63.6702 7 13 233
1924046S11064 1924 6 SI MM NOT_NAMED 1924-02-15 00:00:00 NR -12.0762 63.1616 main 1070 1013 __________P___ -1 -12.0762 63.1616 7 12 232
1924046S11064 1924 6 SI MM NOT_NAMED 1924-02-15 03:00:00 NR -12.4476 62.6972 main 1013 952 __________P___ -1 -12.4476 62.6972 7 11 229
1924046S11064 1924 6 SI MM NOT_NAMED 1924-02-15 06:00:00 NR -12.8000 62.3000 main 952 907 __________O___ -1 -12.8000 62.3000 7 10 226
1924046S11064 1924 6 SI MM NOT_NAMED 1924-02-15 09:00:00 NR -13.1292 61.9847 main 907 862 __________P___ -1 -13.1292 61.9847 7 8 221
1924046S11064 1924 6 SI MM NOT_NAMED 1924-02-15 12:00:00 NR -13.4368 61.7317 main 862 822 __________P___ -1 -13.4368 61.7317 7 8 218
1924046S11064 1924 6 SI MM NOT_NAMED 1924-02-15 15:00:00 NR -13.7261 61.5129 main 822 782 __________P___ -1 -13.7261 61.5129 7 7 217
1924046S11064 1924 6 SI MM NOT_NAMED 1924-02-15 18:00:00 NR -14.0000 61.3000 main 782 752 __________O___ -1 -14.0000 61.3000 7 7 221
1924046S11064 1924 6 SI MM NOT_NAMED 1924-02-15 21:00:00 NR -14.2400 61.0455 main 747 707 __________P___ -1 -14.2400 61.0455 7 7 226
1924046S11064 1924 6 SI MM NOT_NAMED 1924-02-16 00:00:00 NR -14.4700 60.7919 main 707 678 __________P___ -1 -14.4700 60.7919 7 7 226
1924046S11064 1924 6 SI MM NOT_NAMED 1924-02-16 03:00:00 NR -14.7150 60.5424 main 673 633 __________P___ -1 -14.7150 60.5424 7 7 222
1924046S11064 1924 6 SI MM NOT_NAMED 1924-02-16 06:00:00 NR -15.0000 60.3000 main 633 589 __________O___ -1 -15.0000 60.3000 7 8 219
1924046S11064 1924 6 SI MM NOT_NAMED 1924-02-16 09:00:00 NR -15.3448 60.0117 main 589 540 __________P___ -1 -15.3448 60.0117 7 9 216
1924046S11064 1924 6 SI MM NOT_NAMED 1924-02-16 12:00:00 NR -15.7327 59.7387 main 535 486 __________P___ -1 -15.7327 59.7387 7 9 210
1924046S11064 1924 6 SI MM NOT_NAMED 1924-02-16 15:00:00 NR -16.1542 59.5213 main 475 430 __________P___ -1 -16.1542 59.5213 7 9 201
1924046S11064 1924 6 SI MM NOT_NAMED 1924-02-16 18:00:00 NR -16.6000 59.4000 main 430 380 __________O___ -1 -16.6000 59.4000 7 9 185
1924046S11064 1924 6 SI MM NOT_NAMED 1924-02-16 21:00:00 NR -17.0899 59.4353 main 380 343 __________P___ -1 -17.0899 59.4353 7 10 171
1924046S11064 1924 6 SI MM NOT_NAMED 1924-02-17 00:00:00 NR -17.5950 59.5657 main 343 306 __________P___ -1 -17.5950 59.5657 7 10 164
1924046S11064 1924 6 SI MM NOT_NAMED 1924-02-17 03:00:00 NR -18.0776 59.7385 main 306 292 __________P___ -1 -18.0776 59.7385 7 10 161
1924046S11064 1924 6 SI MM NOT_NAMED 1924-02-17 06:00:00 NR -18.5000 59.9000 main 292 272 __________O___ -1 -18.5000 59.9000 7 8 166
1924046S11064 1924 6 SI MM NOT_NAMED 1924-02-17 09:00:00 NR -18.8307 59.9397 main 272 265 __________P___ -1 -18.8307 59.9397 7 6 174
1924046S11064 1924 6 SI MM NOT_NAMED 1924-02-17 12:00:00 NR -19.0972 59.9633 main 265 255 __________P___ -1 -19.0972 59.9633 7 5 173
1924046S11064 1924 6 SI MM NOT_NAMED 1924-02-17 15:00:00 NR -19.3150 60.0052 main 255 251 __________P___ -1 -19.3150 60.0052 7 4 162
1924046S11064 1924 6 SI MM NOT_NAMED 1924-02-17 18:00:00 NR -19.5000 60.1000 main 256 252 __________O___ -1 -19.5000 60.1000 7 4 146
1924046S11064 1924 6 SI MM NOT_NAMED 1924-02-17 21:00:00 NR -19.6827 60.2682 main 269 269 __________P___ -1 -19.6827 60.2682 7 5 132
1924046S11064 1924 6 SI MM NOT_NAMED 1924-02-18 00:00:00 NR -19.8372 60.4951 main 287 285 __________P___ -1 -19.8372 60.4951 7 6 121
1924046S11064 1924 6 SI MM NOT_NAMED 1924-02-18 03:00:00 NR -19.9732 60.7745 main 314 314 __________P___ -1 -19.9732 60.7745 7 6 115
1924046S11064 1924 6 SI MM NOT_NAMED 1924-02-18 06:00:00 NR -20.1000 61.1000 main 345 345 __________O___ -1 -20.1000 61.1000 7 7 112
1924046S11064 1924 6 SI MM NOT_NAMED 1924-02-18 09:00:00 NR -20.2321 61.4449 main 375 375 __________P___ -1 -20.2321 61.4449 7 7 111
1924046S11064 1924 6 SI MM NOT_NAMED 1924-02-18 12:00:00 NR -20.3573 61.8328 main 417 417 __________P___ -1 -20.3573 61.8328 7 8 108
1924046S11064 1924 6 SI MM NOT_NAMED 1924-02-18 15:00:00 NR -20.4789 62.2543 main 469 469 __________P___ -1 -20.4789 62.2543 7 8 107
1924046S11064 1924 6 SI MM NOT_NAMED 1924-02-18 18:00:00 NR -20.6000 62.7000 main 511 511 __________O___ -1 -20.6000 62.7000 7 9 106
1924046S11064 1924 6 SI MM NOT_NAMED 1924-02-18 21:00:00 NR -20.7233 63.1615 main 564 564 __________P___ -1 -20.7233 63.1615 7 9 106
1924046S11064 1924 6 SI MM NOT_NAMED 1924-02-19 00:00:00 NR -20.8485 63.6343 main 606 606 __________P___ -1 -20.8485 63.6343 7 9 106
1924046S11064 1924 6 SI MM NOT_NAMED 1924-02-19 03:00:00 NR -20.9744 64.1150 main 660 660 __________P___ -1 -20.9744 64.1150 7 9 106
1924046S11064 1924 6 SI MM NOT_NAMED 1924-02-19 06:00:00 NR -21.1000 64.6000 main 712 __________O___ -1 -21.1000 64.6000 7 9 106

IBTrACS Databaseについて

本データベースは、米国NOAAが公開する1842年以降の世界の熱帯低気圧のベストトラックデータアーカイブInternational Best Track Archive for Climate Stewardship (IBTrACS)を、ウェブで閲覧しやすい形式に変換したものです。

最終更新日:2021-10-25